< < Back
Terminal Aerodrome Forecast


Current Version              Previous Versions:   1  2  3  4  5  6  7  8  9  

Terminal Aerodrome Forecast

629
FTUS42 KTAE 022321
TAFTLH
TAF
KTLH 022321Z 0300/0324 VRB03KT P6SM BKN100
     FM031200 24005KT P6SM FEW030 SCT100
     FM031800 24008KT P6SM VCTS BKN040CB=

Latest METAR

358
SAUS80 KWBC 031200 RRB
MTRTLH
METAR KTLH 031153Z 00000KT 10SM BKN250 24/23 A3008 RMK AO2 SLP184 70044
T02440228 10244 20239 53011 $


USA.gov is the U.S. government's official web portal to all federal, state and local government web resources and services.